sensor_id;sensor_type;location;lat;lon;timestamp;temperature;humidity
44767;DHT22;30487;48.716;9.272;2022-10-22T00:00:12;14.10;99.90
44767;DHT22;30487;48.716;9.272;2022-10-22T00:02:38;14.00;99.90
44767;DHT22;30487;48.716;9.272;2022-10-22T00:05:04;14.00;99.90
44767;DHT22;30487;48.716;9.272;2022-10-22T00:07:29;14.10;99.90
44767;DHT22;30487;48.716;9.272;2022-10-22T00:09:55;14.00;99.90
44767;DHT22;30487;48.716;9.272;2022-10-22T00:12:21;14.00;99.90
44767;DHT22;30487;48.716;9.272;2022-10-22T00:14:47;13.90;99.90
44767;DHT22;30487;48.716;9.272;2022-10-22T00:17:13;13.90;99.90
44767;DHT22;30487;48.716;9.272;2022-10-22T00:19:39;13.80;99.90
44767;DHT22;30487;48.716;9.272;2022-10-22T00:22:05;13.70;99.90
44767;DHT22;30487;48.716;9.272;2022-10-22T00:24:32;13.70;99.90
44767;DHT22;30487;48.716;9.272;2022-10-22T00:26:58;13.60;99.90
44767;DHT22;30487;48.716;9.272;2022-10-22T00:29:23;13.60;99.90
44767;DHT22;30487;48.716;9.272;2022-10-22T00:31:49;13.50;99.90
44767;DHT22;30487;48.716;9.272;2022-10-22T00:34:17;13.50;99.90
44767;DHT22;30487;48.716;9.272;2022-10-22T00:36:42;13.50;99.90
44767;DHT22;30487;48.716;9.272;2022-10-22T00:39:08;13.50;99.90
44767;DHT22;30487;48.716;9.272;2022-10-22T00:41:34;13.40;99.90
44767;DHT22;30487;48.716;9.272;2022-10-22T00:44:02;13.50;99.90
44767;DHT22;30487;48.716;9.272;2022-10-22T00:46:28;13.50;99.90
44767;DHT22;30487;48.716;9.272;2022-10-22T00:48:55;13.50;99.90
44767;DHT22;30487;48.716;9.272;2022-10-22T00:51:24;13.50;99.90
44767;DHT22;30487;48.716;9.272;2022-10-22T00:53:54;13.40;99.90
44767;DHT22;30487;48.716;9.272;2022-10-22T00:56:22;13.40;99.90
44767;DHT22;30487;48.716;9.272;2022-10-22T00:58:51;13.40;99.90
44767;DHT22;30487;48.716;9.272;2022-10-22T01:01:21;13.40;99.90
44767;DHT22;30487;48.716;9.272;2022-10-22T01:03:49;13.40;99.90
44767;DHT22;30487;48.716;9.272;2022-10-22T01:06:24;13.40;99.90
44767;DHT22;30487;48.716;9.272;2022-10-22T01:09:22;13.40;99.90
44767;DHT22;30487;48.716;9.272;2022-10-22T01:17:49;13.30;99.90
44767;DHT22;30487;48.716;9.272;2022-10-22T01:31:22;13.30;99.90
44767;DHT22;30487;48.716;9.272;2022-10-22T01:33:50;13.30;99.90
44767;DHT22;30487;48.716;9.272;2022-10-22T01:36:18;13.20;99.90
44767;DHT22;30487;48.716;9.272;2022-10-22T01:38:44;13.20;99.90
44767;DHT22;30487;48.716;9.272;2022-10-22T01:41:11;13.20;99.90
44767;DHT22;30487;48.716;9.272;2022-10-22T01:43:36;13.20;99.90
44767;DHT22;30487;48.716;9.272;2022-10-22T01:46:04;13.20;99.90
44767;DHT22;30487;48.716;9.272;2022-10-22T02:04:38;13.10;99.90
44767;DHT22;30487;48.716;9.272;2022-10-22T02:07:09;13.10;99.90
44767;DHT22;30487;48.716;9.272;2022-10-22T02:09:36;13.10;99.90
44767;DHT22;30487;48.716;9.272;2022-10-22T02:12:05;13.10;99.90
44767;DHT22;30487;48.716;9.272;2022-10-22T02:14:33;13.10;99.90
44767;DHT22;30487;48.716;9.272;2022-10-22T02:17:00;13.10;99.90
44767;DHT22;30487;48.716;9.272;2022-10-22T02:19:29;13.10;99.90
44767;DHT22;30487;48.716;9.272;2022-10-22T02:21:59;13.10;99.90
44767;DHT22;30487;48.716;9.272;2022-10-22T02:24:25;13.10;99.90
44767;DHT22;30487;48.716;9.272;2022-10-22T02:29:30;13.10;99.90
44767;DHT22;30487;48.716;9.272;2022-10-22T02:32:00;13.10;99.90
44767;DHT22;30487;48.716;9.272;2022-10-22T02:34:30;13.10;99.90
44767;DHT22;30487;48.716;9.272;2022-10-22T02:36:58;13.10;99.90
44767;DHT22;30487;48.716;9.272;2022-10-22T02:39:25;13.10;99.90
44767;DHT22;30487;48.716;9.272;2022-10-22T02:41:51;13.10;99.90
44767;DHT22;30487;48.716;9.272;2022-10-22T02:44:20;13.10;99.90
44767;DHT22;30487;48.716;9.272;2022-10-22T02:46:46;13.10;99.90
44767;DHT22;30487;48.716;9.272;2022-10-22T02:49:12;13.10;99.90
44767;DHT22;30487;48.716;9.272;2022-10-22T02:51:38;13.10;99.90
44767;DHT22;30487;48.716;9.272;2022-10-22T02:54:03;13.10;99.90
44767;DHT22;30487;48.716;9.272;2022-10-22T02:56:29;13.10;99.90
44767;DHT22;30487;48.716;9.272;2022-10-22T02:58:55;13.10;99.90
44767;DHT22;30487;48.716;9.272;2022-10-22T03:01:20;13.00;99.90
44767;DHT22;30487;48.716;9.272;2022-10-22T03:03:46;13.00;99.90
44767;DHT22;30487;48.716;9.272;2022-10-22T03:06:11;13.00;99.90
44767;DHT22;30487;48.716;9.272;2022-10-22T03:08:37;13.00;99.90
44767;DHT22;30487;48.716;9.272;2022-10-22T03:11:03;13.00;99.90
44767;DHT22;30487;48.716;9.272;2022-10-22T03:13:28;13.00;99.90
44767;DHT22;30487;48.716;9.272;2022-10-22T03:15:54;12.90;99.90
44767;DHT22;30487;48.716;9.272;2022-10-22T03:18:19;12.90;99.90
44767;DHT22;30487;48.716;9.272;2022-10-22T03:20:45;13.00;99.90
44767;DHT22;30487;48.716;9.272;2022-10-22T03:23:12;13.00;99.90
44767;DHT22;30487;48.716;9.272;2022-10-22T03:25:40;12.90;99.90
44767;DHT22;30487;48.716;9.272;2022-10-22T03:28:07;13.00;99.90
44767;DHT22;30487;48.716;9.272;2022-10-22T03:30:33;13.00;99.90
44767;DHT22;30487;48.716;9.272;2022-10-22T03:32:59;13.00;99.90
44767;DHT22;30487;48.716;9.272;2022-10-22T03:35:24;13.00;99.90
44767;DHT22;30487;48.716;9.272;2022-10-22T03:37:50;13.00;99.90
44767;DHT22;30487;48.716;9.272;2022-10-22T03:40:16;13.00;99.90
44767;DHT22;30487;48.716;9.272;2022-10-22T03:42:42;13.00;99.90
44767;DHT22;30487;48.716;9.272;2022-10-22T03:45:08;13.00;99.90
44767;DHT22;30487;48.716;9.272;2022-10-22T03:47:34;13.00;99.90
44767;DHT22;30487;48.716;9.272;2022-10-22T03:50:01;13.00;99.90
44767;DHT22;30487;48.716;9.272;2022-10-22T03:52:27;13.00;99.90
44767;DHT22;30487;48.716;9.272;2022-10-22T03:54:53;13.00;99.90
44767;DHT22;30487;48.716;9.272;2022-10-22T03:57:18;13.00;99.90
44767;DHT22;30487;48.716;9.272;2022-10-22T03:59:45;13.00;99.90
44767;DHT22;30487;48.716;9.272;2022-10-22T04:02:11;13.00;99.90
44767;DHT22;30487;48.716;9.272;2022-10-22T04:04:37;13.10;99.90
44767;DHT22;30487;48.716;9.272;2022-10-22T04:07:04;13.10;99.90
44767;DHT22;30487;48.716;9.272;2022-10-22T04:09:31;13.10;99.90
44767;DHT22;30487;48.716;9.272;2022-10-22T04:11:57;13.10;99.90
44767;DHT22;30487;48.716;9.272;2022-10-22T04:14:22;13.20;99.90
44767;DHT22;30487;48.716;9.272;2022-10-22T04:16:48;13.20;99.90
44767;DHT22;30487;48.716;9.272;2022-10-22T04:19:14;13.20;99.90
44767;DHT22;30487;48.716;9.272;2022-10-22T04:21:40;13.20;99.90
44767;DHT22;30487;48.716;9.272;2022-10-22T04:24:06;13.20;99.90
44767;DHT22;30487;48.716;9.272;2022-10-22T04:26:31;13.20;99.90
44767;DHT22;30487;48.716;9.272;2022-10-22T04:28:57;13.30;99.90
44767;DHT22;30487;48.716;9.272;2022-10-22T04:31:24;13.30;99.90
44767;DHT22;30487;48.716;9.272;2022-10-22T04:33:57;13.30;99.90
44767;DHT22;30487;48.716;9.272;2022-10-22T04:36:23;13.30;99.90
44767;DHT22;30487;48.716;9.272;2022-10-22T04:38:57;13.30;99.90
44767;DHT22;30487;48.716;9.272;2022-10-22T04:41:26;13.30;99.90
44767;DHT22;30487;48.716;9.272;2022-10-22T04:43:53;13.30;99.90
44767;DHT22;30487;48.716;9.272;2022-10-22T04:46:19;13.30;99.90
44767;DHT22;30487;48.716;9.272;2022-10-22T04:48:45;13.30;99.90
44767;DHT22;30487;48.716;9.272;2022-10-22T04:51:14;13.30;99.90
44767;DHT22;30487;48.716;9.272;2022-10-22T04:53:40;13.20;99.90
44767;DHT22;30487;48.716;9.272;2022-10-22T04:56:14;13.20;99.90
44767;DHT22;30487;48.716;9.272;2022-10-22T04:58:48;13.20;99.90
44767;DHT22;30487;48.716;9.272;2022-10-22T05:01:20;13.20;99.90
44767;DHT22;30487;48.716;9.272;2022-10-22T05:03:47;13.20;99.90
44767;DHT22;30487;48.716;9.272;2022-10-22T05:06:13;13.30;99.90
44767;DHT22;30487;48.716;9.272;2022-10-22T05:08:39;13.30;99.90
44767;DHT22;30487;48.716;9.272;2022-10-22T05:11:16;13.30;99.90
44767;DHT22;30487;48.716;9.272;2022-10-22T05:13:42;13.40;99.90
44767;DHT22;30487;48.716;9.272;2022-10-22T05:16:08;13.40;99.90
44767;DHT22;30487;48.716;9.272;2022-10-22T05:18:38;13.40;99.90
44767;DHT22;30487;48.716;9.272;2022-10-22T05:21:08;13.30;99.90
44767;DHT22;30487;48.716;9.272;2022-10-22T05:23:34;13.40;99.90
44767;DHT22;30487;48.716;9.272;2022-10-22T05:26:05;13.30;99.90
44767;DHT22;30487;48.716;9.272;2022-10-22T05:28:30;13.30;99.90
44767;DHT22;30487;48.716;9.272;2022-10-22T05:30:58;13.20;99.90
44767;DHT22;30487;48.716;9.272;2022-10-22T05:33:24;13.20;99.90
44767;DHT22;30487;48.716;9.272;2022-10-22T05:35:51;13.20;99.90
44767;DHT22;30487;48.716;9.272;2022-10-22T05:38:17;13.30;99.90
44767;DHT22;30487;48.716;9.272;2022-10-22T05:40:43;13.30;99.90
44767;DHT22;30487;48.716;9.272;2022-10-22T05:43:09;13.30;99.90
44767;DHT22;30487;48.716;9.272;2022-10-22T05:45:41;13.20;99.90
44767;DHT22;30487;48.716;9.272;2022-10-22T05:48:07;13.20;99.90
44767;DHT22;30487;48.716;9.272;2022-10-22T05:50:37;13.30;99.90
44767;DHT22;30487;48.716;9.272;2022-10-22T05:53:04;13.30;99.90
44767;DHT22;30487;48.716;9.272;2022-10-22T05:55:34;13.30;99.90
44767;DHT22;30487;48.716;9.272;2022-10-22T05:58:05;13.30;99.90
44767;DHT22;30487;48.716;9.272;2022-10-22T06:00:31;13.20;99.90
44767;DHT22;30487;48.716;9.272;2022-10-22T06:02:58;13.20;99.90
44767;DHT22;30487;48.716;9.272;2022-10-22T06:05:24;13.20;99.90
44767;DHT22;30487;48.716;9.272;2022-10-22T06:07:50;13.10;99.90
44767;DHT22;30487;48.716;9.272;2022-10-22T06:10:18;13.10;99.90
44767;DHT22;30487;48.716;9.272;2022-10-22T06:12:46;13.10;99.90
44767;DHT22;30487;48.716;9.272;2022-10-22T06:15:13;13.00;99.90
44767;DHT22;30487;48.716;9.272;2022-10-22T06:17:39;13.10;99.90
44767;DHT22;30487;48.716;9.272;2022-10-22T06:20:08;13.10;99.90
44767;DHT22;30487;48.716;9.272;2022-10-22T06:22:34;13.10;99.90
44767;DHT22;30487;48.716;9.272;2022-10-22T06:24:59;13.10;99.90
44767;DHT22;30487;48.716;9.272;2022-10-22T06:27:25;13.10;99.90
44767;DHT22;30487;48.716;9.272;2022-10-22T06:29:50;13.10;99.90
44767;DHT22;30487;48.716;9.272;2022-10-22T06:32:16;13.20;99.90
44767;DHT22;30487;48.716;9.272;2022-10-22T06:34:42;13.20;99.90
44767;DHT22;30487;48.716;9.272;2022-10-22T06:37:09;13.10;99.90
44767;DHT22;30487;48.716;9.272;2022-10-22T06:39:35;13.10;99.90
44767;DHT22;30487;48.716;9.272;2022-10-22T06:42:00;13.10;99.90
44767;DHT22;30487;48.716;9.272;2022-10-22T06:44:26;13.10;99.90
44767;DHT22;30487;48.716;9.272;2022-10-22T06:46:52;13.10;99.90
44767;DHT22;30487;48.716;9.272;2022-10-22T06:49:19;13.10;99.90
44767;DHT22;30487;48.716;9.272;2022-10-22T06:51:48;13.20;99.90
44767;DHT22;30487;48.716;9.272;2022-10-22T06:54:13;13.20;99.90
44767;DHT22;30487;48.716;9.272;2022-10-22T06:56:39;13.20;99.90
44767;DHT22;30487;48.716;9.272;2022-10-22T06:59:05;13.20;99.90
44767;DHT22;30487;48.716;9.272;2022-10-22T07:01:32;13.20;99.90
44767;DHT22;30487;48.716;9.272;2022-10-22T07:03:58;13.30;99.90
44767;DHT22;30487;48.716;9.272;2022-10-22T07:06:25;13.30;99.90
44767;DHT22;30487;48.716;9.272;2022-10-22T07:08:52;13.30;99.90
44767;DHT22;30487;48.716;9.272;2022-10-22T07:11:23;13.40;99.90
44767;DHT22;30487;48.716;9.272;2022-10-22T07:13:49;13.40;99.90
44767;DHT22;30487;48.716;9.272;2022-10-22T07:16:16;13.40;99.90
44767;DHT22;30487;48.716;9.272;2022-10-22T07:18:42;13.40;99.90
44767;DHT22;30487;48.716;9.272;2022-10-22T07:21:09;13.40;99.90
44767;DHT22;30487;48.716;9.272;2022-10-22T07:23:35;13.50;99.90
44767;DHT22;30487;48.716;9.272;2022-10-22T07:26:02;13.50;99.90
44767;DHT22;30487;48.716;9.272;2022-10-22T07:28:29;13.60;99.90
44767;DHT22;30487;48.716;9.272;2022-10-22T07:30:54;13.60;99.90
44767;DHT22;30487;48.716;9.272;2022-10-22T07:33:20;13.60;99.90
44767;DHT22;30487;48.716;9.272;2022-10-22T07:35:46;13.60;99.90
44767;DHT22;30487;48.716;9.272;2022-10-22T07:38:11;13.70;99.90
44767;DHT22;30487;48.716;9.272;2022-10-22T07:40:37;13.70;99.90
44767;DHT22;30487;48.716;9.272;2022-10-22T07:43:03;13.70;99.90
44767;DHT22;30487;48.716;9.272;2022-10-22T07:45:29;13.80;99.90
44767;DHT22;30487;48.716;9.272;2022-10-22T07:47:55;13.90;99.90
44767;DHT22;30487;48.716;9.272;2022-10-22T07:50:20;13.90;99.90
44767;DHT22;30487;48.716;9.272;2022-10-22T07:52:46;14.00;99.90
44767;DHT22;30487;48.716;9.272;2022-10-22T07:55:12;14.10;99.90
44767;DHT22;30487;48.716;9.272;2022-10-22T07:57:38;14.20;99.90
44767;DHT22;30487;48.716;9.272;2022-10-22T08:00:06;14.20;99.90
44767;DHT22;30487;48.716;9.272;2022-10-22T08:02:32;14.30;99.90
44767;DHT22;30487;48.716;9.272;2022-10-22T08:04:58;14.30;99.90
44767;DHT22;30487;48.716;9.272;2022-10-22T08:07:24;14.40;99.90
44767;DHT22;30487;48.716;9.272;2022-10-22T08:09:49;14.50;99.90
44767;DHT22;30487;48.716;9.272;2022-10-22T08:12:15;14.50;99.90
44767;DHT22;30487;48.716;9.272;2022-10-22T08:14:40;14.70;99.90
44767;DHT22;30487;48.716;9.272;2022-10-22T08:17:06;14.80;99.90
44767;DHT22;30487;48.716;9.272;2022-10-22T08:19:31;15.00;99.90
44767;DHT22;30487;48.716;9.272;2022-10-22T08:21:58;15.20;99.90
44767;DHT22;30487;48.716;9.272;2022-10-22T08:24:24;15.20;99.90
44767;DHT22;30487;48.716;9.272;2022-10-22T08:26:51;15.30;99.90
44767;DHT22;30487;48.716;9.272;2022-10-22T08:29:19;15.20;99.90
44767;DHT22;30487;48.716;9.272;2022-10-22T08:31:46;15.30;99.90
44767;DHT22;30487;48.716;9.272;2022-10-22T08:34:11;15.40;99.90
44767;DHT22;30487;48.716;9.272;2022-10-22T08:36:37;15.50;99.90
44767;DHT22;30487;48.716;9.272;2022-10-22T08:39:02;15.60;99.90
44767;DHT22;30487;48.716;9.272;2022-10-22T08:41:28;15.70;99.90
44767;DHT22;30487;48.716;9.272;2022-10-22T08:44:19;15.90;99.90
44767;DHT22;30487;48.716;9.272;2022-10-22T08:49:40;16.40;99.90
44767;DHT22;30487;48.716;9.272;2022-10-22T08:52:14;16.60;99.90
44767;DHT22;30487;48.716;9.272;2022-10-22T08:54:57;17.00;99.90
44767;DHT22;30487;48.716;9.272;2022-10-22T08:57:51;17.40;99.90
44767;DHT22;30487;48.716;9.272;2022-10-22T09:03:20;18.80;99.90
44767;DHT22;30487;48.716;9.272;2022-10-22T09:05:55;19.50;99.90
44767;DHT22;30487;48.716;9.272;2022-10-22T09:08:24;20.10;99.90
44767;DHT22;30487;48.716;9.272;2022-10-22T09:10:56;20.40;99.90
44767;DHT22;30487;48.716;9.272;2022-10-22T09:13:23;20.60;99.90
44767;DHT22;30487;48.716;9.272;2022-10-22T09:15:53;20.90;99.90
44767;DHT22;30487;48.716;9.272;2022-10-22T09:21:24;21.50;99.90
44767;DHT22;30487;48.716;9.272;2022-10-22T09:26:45;22.30;99.90
44767;DHT22;30487;48.716;9.272;2022-10-22T09:29:20;22.20;99.90
44767;DHT22;30487;48.716;9.272;2022-10-22T09:31:48;22.30;99.90
44767;DHT22;30487;48.716;9.272;2022-10-22T09:34:18;22.00;99.90
44767;DHT22;30487;48.716;9.272;2022-10-22T09:36:44;21.70;99.90
44767;DHT22;30487;48.716;9.272;2022-10-22T09:39:28;21.80;99.90
44767;DHT22;30487;48.716;9.272;2022-10-22T09:41:56;22.20;99.90
44767;DHT22;30487;48.716;9.272;2022-10-22T09:44:22;22.50;99.90
44767;DHT22;30487;48.716;9.272;2022-10-22T09:46:47;21.90;99.90
44767;DHT22;30487;48.716;9.272;2022-10-22T09:49:19;22.00;99.90
44767;DHT22;30487;48.716;9.272;2022-10-22T09:54:18;21.60;99.90
44767;DHT22;30487;48.716;9.272;2022-10-22T09:56:52;21.80;99.90
44767;DHT22;30487;48.716;9.272;2022-10-22T09:59:23;22.50;99.90
44767;DHT22;30487;48.716;9.272;2022-10-22T10:01:59;23.10;99.90
44767;DHT22;30487;48.716;9.272;2022-10-22T10:04:25;23.30;99.90
44767;DHT22;30487;48.716;9.272;2022-10-22T10:06:54;23.80;99.90
44767;DHT22;30487;48.716;9.272;2022-10-22T10:09:23;23.50;99.90
44767;DHT22;30487;48.716;9.272;2022-10-22T10:18:17;23.70;99.90
44767;DHT22;30487;48.716;9.272;2022-10-22T10:21:08;24.00;99.00
44767;DHT22;30487;48.716;9.272;2022-10-22T10:24:02;24.20;98.80
44767;DHT22;30487;48.716;9.272;2022-10-22T10:26:51;24.40;99.20
44767;DHT22;30487;48.716;9.272;2022-10-22T10:32:25;24.40;98.00
44767;DHT22;30487;48.716;9.272;2022-10-22T10:35:15;23.40;97.80
44767;DHT22;30487;48.716;9.272;2022-10-22T10:37:49;23.20;97.90
44767;DHT22;30487;48.716;9.272;2022-10-22T10:40:27;23.50;99.80
44767;DHT22;30487;48.716;9.272;2022-10-22T10:42:59;24.20;98.10
44767;DHT22;30487;48.716;9.272;2022-10-22T10:48:48;23.90;98.20
44767;DHT22;30487;48.716;9.272;2022-10-22T10:54:16;23.60;97.10
44767;DHT22;30487;48.716;9.272;2022-10-22T10:56:58;23.30;98.20
44767;DHT22;30487;48.716;9.272;2022-10-22T11:08:01;24.40;95.10
44767;DHT22;30487;48.716;9.272;2022-10-22T11:13:46;24.60;95.10
44767;DHT22;30487;48.716;9.272;2022-10-22T11:16:28;24.30;94.40
44767;DHT22;30487;48.716;9.272;2022-10-22T11:19:02;24.00;93.70
44767;DHT22;30487;48.716;9.272;2022-10-22T11:21:44;24.50;94.20
44767;DHT22;30487;48.716;9.272;2022-10-22T11:24:23;25.00;94.00
44767;DHT22;30487;48.716;9.272;2022-10-22T11:26:57;25.20;91.60
44767;DHT22;30487;48.716;9.272;2022-10-22T11:29:31;24.90;90.00
44767;DHT22;30487;48.716;9.272;2022-10-22T11:32:00;25.10;90.80
44767;DHT22;30487;48.716;9.272;2022-10-22T11:34:47;25.00;91.30
44767;DHT22;30487;48.716;9.272;2022-10-22T11:37:14;25.50;91.80
44767;DHT22;30487;48.716;9.272;2022-10-22T11:39:57;25.60;91.40
44767;DHT22;30487;48.716;9.272;2022-10-22T11:43:07;25.20;90.60
44767;DHT22;30487;48.716;9.272;2022-10-22T11:45:38;24.30;90.20
44767;DHT22;30487;48.716;9.272;2022-10-22T11:50:45;23.30;91.60
44767;DHT22;30487;48.716;9.272;2022-10-22T12:08:55;25.00;90.50
44767;DHT22;30487;48.716;9.272;2022-10-22T12:11:46;25.90;87.50
44767;DHT22;30487;48.716;9.272;2022-10-22T12:14:26;26.90;79.30
44767;DHT22;30487;48.716;9.272;2022-10-22T12:21:52;27.70;73.30
44767;DHT22;30487;48.716;9.272;2022-10-22T12:24:21;27.20;73.50
44767;DHT22;30487;48.716;9.272;2022-10-22T12:26:47;26.60;74.50
44767;DHT22;30487;48.716;9.272;2022-10-22T12:29:18;25.80;76.60
44767;DHT22;30487;48.716;9.272;2022-10-22T12:31:45;25.60;77.10
44767;DHT22;30487;48.716;9.272;2022-10-22T12:34:22;25.80;79.30
44767;DHT22;30487;48.716;9.272;2022-10-22T12:36:50;26.50;74.00
44767;DHT22;30487;48.716;9.272;2022-10-22T12:39:24;26.20;70.20
44767;DHT22;30487;48.716;9.272;2022-10-22T12:41:49;26.40;72.20
44767;DHT22;30487;48.716;9.272;2022-10-22T12:44:17;25.40;73.50
44767;DHT22;30487;48.716;9.272;2022-10-22T12:46:44;25.10;75.90
44767;DHT22;30487;48.716;9.272;2022-10-22T12:49:14;24.70;76.30
44767;DHT22;30487;48.716;9.272;2022-10-22T12:51:41;24.40;76.60
44767;DHT22;30487;48.716;9.272;2022-10-22T12:54:14;25.30;78.00
44767;DHT22;30487;48.716;9.272;2022-10-22T12:56:41;26.50;76.50
44767;DHT22;30487;48.716;9.272;2022-10-22T13:01:42;25.60;75.70
44767;DHT22;30487;48.716;9.272;2022-10-22T13:04:35;25.30;76.10
44767;DHT22;30487;48.716;9.272;2022-10-22T13:09:48;27.30;75.00
44767;DHT22;30487;48.716;9.272;2022-10-22T13:12:25;27.60;71.60
44767;DHT22;30487;48.716;9.272;2022-10-22T13:14:51;26.60;72.80
44767;DHT22;30487;48.716;9.272;2022-10-22T13:17:37;25.80;73.10
44767;DHT22;30487;48.716;9.272;2022-10-22T13:20:15;25.80;73.20
44767;DHT22;30487;48.716;9.272;2022-10-22T13:23:00;26.40;74.80
44767;DHT22;30487;48.716;9.272;2022-10-22T13:25:36;27.00;75.30
44767;DHT22;30487;48.716;9.272;2022-10-22T13:30:51;27.50;72.90
44767;DHT22;30487;48.716;9.272;2022-10-22T13:35:48;25.60;70.70
44767;DHT22;30487;48.716;9.272;2022-10-22T13:38:21;24.80;74.70
44767;DHT22;30487;48.716;9.272;2022-10-22T13:40:47;24.30;75.40
44767;DHT22;30487;48.716;9.272;2022-10-22T13:43:14;24.60;75.80
44767;DHT22;30487;48.716;9.272;2022-10-22T13:45:40;25.30;75.20
44767;DHT22;30487;48.716;9.272;2022-10-22T13:48:15;25.30;74.70
44767;DHT22;30487;48.716;9.272;2022-10-22T13:50:43;25.30;74.70
44767;DHT22;30487;48.716;9.272;2022-10-22T13:53:15;25.30;74.20
44767;DHT22;30487;48.716;9.272;2022-10-22T13:55:42;25.00;75.00
44767;DHT22;30487;48.716;9.272;2022-10-22T13:58:11;25.10;75.70
44767;DHT22;30487;48.716;9.272;2022-10-22T14:00:39;25.70;74.10
44767;DHT22;30487;48.716;9.272;2022-10-22T14:03:09;26.30;72.80
44767;DHT22;30487;48.716;9.272;2022-10-22T14:05:35;26.90;72.50
44767;DHT22;30487;48.716;9.272;2022-10-22T14:08:01;27.30;72.00
44767;DHT22;30487;48.716;9.272;2022-10-22T14:10:27;27.30;71.90
44767;DHT22;30487;48.716;9.272;2022-10-22T14:12:52;27.40;71.50
44767;DHT22;30487;48.716;9.272;2022-10-22T14:15:20;27.20;71.10
44767;DHT22;30487;48.716;9.272;2022-10-22T14:17:55;27.70;71.30
44767;DHT22;30487;48.716;9.272;2022-10-22T14:20:23;27.80;70.30
44767;DHT22;30487;48.716;9.272;2022-10-22T14:22:50;27.60;69.70
44767;DHT22;30487;48.716;9.272;2022-10-22T14:25:25;27.70;69.40
44767;DHT22;30487;48.716;9.272;2022-10-22T14:27:51;27.60;69.80
44767;DHT22;30487;48.716;9.272;2022-10-22T14:30:24;27.40;69.70
44767;DHT22;30487;48.716;9.272;2022-10-22T14:32:50;27.30;70.10
44767;DHT22;30487;48.716;9.272;2022-10-22T14:35:20;27.20;68.80
44767;DHT22;30487;48.716;9.272;2022-10-22T14:37:47;26.90;72.60
44767;DHT22;30487;48.716;9.272;2022-10-22T14:40:15;26.80;69.30
44767;DHT22;30487;48.716;9.272;2022-10-22T14:42:43;26.60;71.40
44767;DHT22;30487;48.716;9.272;2022-10-22T14:47:38;26.30;71.50
44767;DHT22;30487;48.716;9.272;2022-10-22T14:50:04;26.00;71.80
44767;DHT22;30487;48.716;9.272;2022-10-22T14:52:31;26.00;71.50
44767;DHT22;30487;48.716;9.272;2022-10-22T14:54:56;26.00;71.40
44767;DHT22;30487;48.716;9.272;2022-10-22T14:57:22;25.60;72.30
44767;DHT22;30487;48.716;9.272;2022-10-22T14:59:47;25.50;72.70
44767;DHT22;30487;48.716;9.272;2022-10-22T15:02:13;25.40;73.20
44767;DHT22;30487;48.716;9.272;2022-10-22T15:04:38;25.40;74.20
44767;DHT22;30487;48.716;9.272;2022-10-22T15:07:04;25.30;73.70
44767;DHT22;30487;48.716;9.272;2022-10-22T15:09:30;24.90;74.00
44767;DHT22;30487;48.716;9.272;2022-10-22T15:11:56;24.60;74.50
44767;DHT22;30487;48.716;9.272;2022-10-22T15:14:21;24.40;74.90
44767;DHT22;30487;48.716;9.272;2022-10-22T15:16:47;24.10;75.00
44767;DHT22;30487;48.716;9.272;2022-10-22T15:19:13;24.10;75.30
44767;DHT22;30487;48.716;9.272;2022-10-22T15:21:39;23.90;75.70
44767;DHT22;30487;48.716;9.272;2022-10-22T15:24:05;23.80;76.10
44767;DHT22;30487;48.716;9.272;2022-10-22T15:26:31;23.80;76.60
44767;DHT22;30487;48.716;9.272;2022-10-22T15:28:56;23.60;77.40
44767;DHT22;30487;48.716;9.272;2022-10-22T15:31:49;23.50;77.10
44767;DHT22;30487;48.716;9.272;2022-10-22T15:34:24;23.20;77.00
44767;DHT22;30487;48.716;9.272;2022-10-22T15:36:52;23.20;77.50
44767;DHT22;30487;48.716;9.272;2022-10-22T15:39:18;23.00;77.30
44767;DHT22;30487;48.716;9.272;2022-10-22T15:41:44;22.80;79.00
44767;DHT22;30487;48.716;9.272;2022-10-22T15:44:38;22.60;80.00
44767;DHT22;30487;48.716;9.272;2022-10-22T15:47:05;22.30;79.00
44767;DHT22;30487;48.716;9.272;2022-10-22T15:49:34;22.10;80.80
44767;DHT22;30487;48.716;9.272;2022-10-22T15:52:00;22.00;80.90
44767;DHT22;30487;48.716;9.272;2022-10-22T15:54:28;21.70;81.10
44767;DHT22;30487;48.716;9.272;2022-10-22T15:56:55;21.60;81.20
44767;DHT22;30487;48.716;9.272;2022-10-22T15:59:22;21.40;81.30
44767;DHT22;30487;48.716;9.272;2022-10-22T16:01:47;21.30;81.70
44767;DHT22;30487;48.716;9.272;2022-10-22T16:04:13;21.10;82.30
44767;DHT22;30487;48.716;9.272;2022-10-22T16:06:42;21.00;83.10
44767;DHT22;30487;48.716;9.272;2022-10-22T16:09:10;20.80;83.90
44767;DHT22;30487;48.716;9.272;2022-10-22T16:11:37;20.60;84.60
44767;DHT22;30487;48.716;9.272;2022-10-22T16:14:03;20.50;84.90
44767;DHT22;30487;48.716;9.272;2022-10-22T16:16:30;20.30;85.40
44767;DHT22;30487;48.716;9.272;2022-10-22T16:18:56;20.30;85.60
44767;DHT22;30487;48.716;9.272;2022-10-22T16:21:23;20.20;85.70
44767;DHT22;30487;48.716;9.272;2022-10-22T16:23:49;20.10;86.30
44767;DHT22;30487;48.716;9.272;2022-10-22T16:26:16;19.90;87.00
44767;DHT22;30487;48.716;9.272;2022-10-22T16:28:43;19.80;87.60
44767;DHT22;30487;48.716;9.272;2022-10-22T16:31:11;19.70;88.20
44767;DHT22;30487;48.716;9.272;2022-10-22T16:33:38;19.60;88.80
44767;DHT22;30487;48.716;9.272;2022-10-22T16:36:22;19.40;89.10
44767;DHT22;30487;48.716;9.272;2022-10-22T16:38:48;19.40;89.70
44767;DHT22;30487;48.716;9.272;2022-10-22T16:41:16;19.30;90.00
44767;DHT22;30487;48.716;9.272;2022-10-22T16:43:43;19.20;90.20
44767;DHT22;30487;48.716;9.272;2022-10-22T16:46:09;19.10;90.50
44767;DHT22;30487;48.716;9.272;2022-10-22T16:48:35;19.00;90.70
44767;DHT22;30487;48.716;9.272;2022-10-22T16:51:06;18.90;91.00
44767;DHT22;30487;48.716;9.272;2022-10-22T16:53:32;18.80;91.50
44767;DHT22;30487;48.716;9.272;2022-10-22T16:55:58;18.80;91.70
44767;DHT22;30487;48.716;9.272;2022-10-22T16:58:24;18.70;91.80
44767;DHT22;30487;48.716;9.272;2022-10-22T17:00:50;18.70;92.10
44767;DHT22;30487;48.716;9.272;2022-10-22T17:03:15;18.60;92.20
44767;DHT22;30487;48.716;9.272;2022-10-22T17:05:42;18.50;92.50
44767;DHT22;30487;48.716;9.272;2022-10-22T17:08:07;18.50;92.90
44767;DHT22;30487;48.716;9.272;2022-10-22T17:10:35;18.30;93.20
44767;DHT22;30487;48.716;9.272;2022-10-22T17:13:02;18.30;93.40
44767;DHT22;30487;48.716;9.272;2022-10-22T17:15:28;18.20;93.50
44767;DHT22;30487;48.716;9.272;2022-10-22T17:17:53;18.10;93.60
44767;DHT22;30487;48.716;9.272;2022-10-22T17:20:19;18.00;93.80
44767;DHT22;30487;48.716;9.272;2022-10-22T17:22:45;18.00;94.00
44767;DHT22;30487;48.716;9.272;2022-10-22T17:25:12;18.00;94.20
44767;DHT22;30487;48.716;9.272;2022-10-22T17:27:38;17.90;94.40
44767;DHT22;30487;48.716;9.272;2022-10-22T17:30:05;17.90;94.80
44767;DHT22;30487;48.716;9.272;2022-10-22T17:32:35;17.90;94.90